Alondra — 3FCU — position and weather

sailwx.info

Track history (hours):
 
Tides and Currents Weather Stations Pressure Air Temp Water Temp Dewpoint Dewpoint Depression Visibility Wind Speed Wind Dir Waves Ship Positions

Alondra

Last reported at 2017-Sep-20 13:36 UTC. Time now 2017-Sep-23 05:58 UTC.
Position N 39°36' W 010°46'.

Length 97 m; draft 4 m.

Type: Cargo ship. MMSI: 236404000.

Date/timePositionNaut miles runAvg speedWind from/ knotsBaromVisibWave heightAir tempDewpointWater temp
2017-Sep-20 13:36N 39°36' W 010°46'1 8.2
2017-Sep-20 13:27N 39°35' W 010°46'4 8.1
2017-Sep-20 13:01N 39°31' W 010°45'4 8.1
2017-Sep-20 12:30N 39°27' W 010°44'4 8.6
2017-Sep-20 12:00N 39°23' W 010°43'611.6
2017-Sep-20 11:31N 39°17' W 010°41'4 8.0
2017-Sep-20 10:59N 39°13' W 010°40'812.9
2017-Sep-20 10:24N 39°21' W 010°41'3 7.6
2017-Sep-20 10:01N 39°18' W 010°41'4 8.5
2017-Sep-20 09:31N 39°14' W 010°40'4 8.5
2017-Sep-20 09:00N 39°09' W 010°40'4 8.3
2017-Sep-20 08:31N 39°05' W 010°39'4 8.5
2017-Sep-20 08:00N 39°01' W 010°38'4 8.6
2017-Sep-20 07:30N 38°57' W 010°38'4 8.5
2017-Sep-20 07:00N 38°53' W 010°37'4 8.5
2017-Sep-20 06:30N 38°48' W 010°36'4 8.4
2017-Sep-20 06:00N 38°44' W 010°34'4 8.3
2017-Sep-20 05:30N 38°40' W 010°33'4 8.4
2017-Sep-20 05:00N 38°36' W 010°32'4 8.5
2017-Sep-20 04:31N 38°32' W 010°32'4 8.6
2017-Sep-20 04:00N 38°28' W 010°31'4 8.3
2017-Sep-20 03:30N 38°24' W 010°30'4 8.1
2017-Sep-20 03:00N 38°20' W 010°29'4 7.6
2017-Sep-20 02:31N 38°16' W 010°28'4 7.3
2017-Sep-20 02:01N 38°12' W 010°27'4 7.8
2017-Sep-20 01:31N 38°09' W 010°26'4 8.0
2017-Sep-20 01:00N 38°05' W 010°25'4 7.8
2017-Sep-20 00:30N 38°01' W 010°25'4 7.7
2017-Sep-20 00:00N 37°57' W 010°25'4 7.5
2017-Sep-19 23:28N 37°53' W 010°24'3 7.3
2017-Sep-19 23:00N 37°50' W 010°23'4 7.3
2017-Sep-19 22:28N 37°46' W 010°23'3 7.3
2017-Sep-19 22:01N 37°42' W 010°22'4 7.4
2017-Sep-19 21:31N 37°39' W 010°21'4 8.0
2017-Sep-19 21:00N 37°35' W 010°20'4 8.2
2017-Sep-19 20:29N 37°31' W 010°19'4 8.3
2017-Sep-19 20:00N 37°27' W 010°18'5 8.6
2017-Sep-19 19:28N 37°22' W 010°17'5 8.3
2017-Sep-19 18:50N 37°17' W 010°16'3 8.1
2017-Sep-19 18:31N 37°14' W 010°16'4 8.0
2017-Sep-19 17:59N 37°10' W 010°15'100 6.3
2017-Sep-19 02:07N 35°59' W 008°47'1 7.6
2017-Sep-19 02:00N 35°59' W 008°46'4 7.8
2017-Sep-19 01:28N 35°59' W 008°41'149 9.6
2017-Sep-18 09:58N 35°58' W 005°36'510.9
2017-Sep-18 09:31N 35°59' W 005°30'5 9.3
2017-Sep-18 09:01N 35°60' W 005°24'4 7.9
2017-Sep-18 08:31N 35°57' W 005°21'2 4.1
2017-Sep-18 08:01N 35°55' W 005°20'0 0.1
2017-Sep-18 07:28N 35°55' W 005°20'0 0.1
2017-Sep-18 06:58N 35°55' W 005°20'0 0.0
2017-Sep-18 06:28N 35°55' W 005°20'0 0.2
2017-Sep-18 05:58N 35°55' W 005°20'0 0.0
2017-Sep-18 05:25N 35°55' W 005°20'0 0.1
2017-Sep-18 04:58N 35°55' W 005°20'0 0.1
2017-Sep-18 04:28N 35°55' W 005°20'0 0.0
2017-Sep-18 03:58N 35°55' W 005°20'0 0.0
2017-Sep-18 03:28N 35°55' W 005°20'0 0.0
2017-Sep-18 02:58N 35°55' W 005°20'0 0.1
2017-Sep-18 02:28N 35°55' W 005°20'0 0.0
2017-Sep-18 01:58N 35°55' W 005°20'0 0.1
2017-Sep-18 01:28N 35°55' W 005°20'0 0.0
2017-Sep-18 00:58N 35°55' W 005°20'0 0.0
2017-Sep-18 00:28N 35°55' W 005°20'0 0.0
2017-Sep-17 23:58N 35°55' W 005°20'0 0.0
2017-Sep-17 23:28N 35°55' W 005°20'0 0.0
2017-Sep-17 22:58N 35°55' W 005°20'0 0.0
2017-Sep-17 22:28N 35°55' W 005°20'0 0.0
2017-Sep-17 21:58N 35°55' W 005°20'0 0.0
2017-Sep-17 21:28N 35°55' W 005°20'0 0.0
2017-Sep-17 20:58N 35°55' W 005°20'0 0.0
2017-Sep-17 20:28N 35°55' W 005°20'0 0.0
2017-Sep-17 19:58N 35°55' W 005°20'0 0.0
2017-Sep-17 19:28N 35°55' W 005°20'0 0.0
2017-Sep-17 18:58N 35°55' W 005°20'0 0.0
2017-Sep-17 18:28N 35°55' W 005°20'0 0.0
2017-Sep-17 17:58N 35°55' W 005°20'0 0.0
2017-Sep-17 17:28N 35°55' W 005°20'0 0.0
2017-Sep-17 16:58N 35°55' W 005°20'0 0.0
2017-Sep-17 16:28N 35°55' W 005°20'0 0.0
2017-Sep-17 15:58N 35°55' W 005°20'0 0.1
2017-Sep-17 15:28N 35°55' W 005°20'0 0.1
2017-Sep-17 14:58N 35°55' W 005°20'0 0.1
2017-Sep-17 14:28N 35°55' W 005°20'0 0.0
2017-Sep-17 13:58N 35°55' W 005°20'0 0.1
2017-Sep-17 13:28N 35°55' W 005°20'0 0.0
2017-Sep-17 12:58N 35°55' W 005°20'0 0.0
2017-Sep-17 12:28N 35°55' W 005°20'0 0.0
2017-Sep-17 11:58N 35°55' W 005°20'0 0.0
2017-Sep-17 11:28N 35°55' W 005°20'0 0.0
2017-Sep-17 10:58N 35°55' W 005°20'0 0.1
2017-Sep-17 10:28N 35°55' W 005°20'0 0.0
2017-Sep-17 09:58N 35°55' W 005°20'0 0.0
2017-Sep-17 09:28N 35°55' W 005°20'0 0.0
2017-Sep-17 08:58N 35°55' W 005°20'0 0.0
2017-Sep-17 08:28N 35°55' W 005°20'0 0.0
2017-Sep-17 07:58N 35°55' W 005°20'0 0.0
2017-Sep-17 07:28N 35°55' W 005°20'0 0.0
2017-Sep-17 06:58N 35°55' W 005°20'0 0.0
2017-Sep-17 06:28N 35°55' W 005°20'0 0.1
2017-Sep-17 05:58N 35°55' W 005°20'0 0.0
2017-Sep-17 05:28N 35°55' W 005°20'0 0.1
2017-Sep-17 04:58N 35°55' W 005°20'0 0.1
2017-Sep-17 04:28N 35°55' W 005°20'0 0.1
2017-Sep-17 03:58N 35°55' W 005°20'0 0.0
2017-Sep-17 03:28N 35°55' W 005°20'0 0.0
2017-Sep-17 02:58N 35°55' W 005°20'0 0.0
2017-Sep-17 02:28N 35°55' W 005°20'0 0.1
2017-Sep-17 01:58N 35°55' W 005°20'0 0.1
2017-Sep-17 01:28N 35°55' W 005°20'0 0.0
2017-Sep-17 00:58N 35°55' W 005°20'0 0.0
2017-Sep-17 00:28N 35°55' W 005°20'0 0.0
2017-Sep-16 23:58N 35°55' W 005°20'0 0.1
2017-Sep-16 23:28N 35°55' W 005°20'0 0.0
2017-Sep-16 22:58N 35°55' W 005°20'0 0.0
2017-Sep-16 22:28N 35°55' W 005°20'0 0.0
2017-Sep-16 21:58N 35°55' W 005°20'0 0.0
2017-Sep-16 21:28N 35°55' W 005°20'0 0.0
2017-Sep-16 20:58N 35°55' W 005°20'0 0.1
2017-Sep-16 20:28N 35°55' W 005°20'0 0.1
2017-Sep-16 19:58N 35°55' W 005°20'0 0.1
2017-Sep-16 19:28N 35°55' W 005°20'0 0.1
2017-Sep-16 18:58N 35°55' W 005°20'0 0.0
2017-Sep-16 18:28N 35°55' W 005°20'0 0.1
2017-Sep-16 17:58N 35°55' W 005°20'0 0.0
2017-Sep-16 17:28N 35°55' W 005°20'0 0.1
2017-Sep-16 16:58N 35°55' W 005°20'0 0.0
2017-Sep-16 16:28N 35°55' W 005°20'0 0.1
2017-Sep-16 15:58N 35°55' W 005°20'0 0.0
2017-Sep-16 15:28N 35°55' W 005°20'0 0.0
2017-Sep-16 14:58N 35°55' W 005°20'0 0.0
2017-Sep-16 14:28N 35°55' W 005°20'0 0.0
2017-Sep-16 13:58N 35°55' W 005°20'0 0.5
2017-Sep-16 13:30N 35°55' W 005°20'2 3.3
2017-Sep-16 13:00N 35°54' W 005°19'0 0.4
2017-Sep-16 12:28N 35°54' W 005°18'0 0.0
2017-Sep-16 11:58N 35°54' W 005°18'0 0.0
2017-Sep-16 11:30N 35°54' W 005°18'0 0.0
2017-Sep-16 10:58N 35°54' W 005°18'0 0.0
2017-Sep-16 10:28N 35°54' W 005°18'0 0.0
2017-Sep-16 09:58N 35°54' W 005°18'0 0.0
2017-Sep-16 09:28N 35°54' W 005°18'0 0.0
2017-Sep-16 08:58N 35°54' W 005°18'0 0.0
2017-Sep-16 08:28N 35°54' W 005°18'0 0.0
2017-Sep-16 08:00N 35°54' W 005°18'1 1.7
2017-Sep-16 07:30N 35°55' W 005°18'1 1.3
2017-Sep-16 07:00N 35°55' W 005°18'0 0.8
2017-Sep-16 06:30N 35°56' W 005°18'0 0.8
2017-Sep-16 06:01N 35°56' W 005°18'1 1.8
2017-Sep-16 05:30N 35°57' W 005°17'28611.1
2017-Sep-15 03:44N 36°47' E 000°32'312.1
2017-Sep-15 03:28N 36°48' E 000°36'612.2
2017-Sep-15 03:00N 36°49' E 000°42'612.3
2017-Sep-15 02:30N 36°51' E 000°50'612.4
2017-Sep-15 02:00N 36°52' E 000°57'612.6
2017-Sep-15 01:30N 36°53' E 001°05'1512.7
2017-Sep-15 00:19N 36°59' E 001°23'413.0
2017-Sep-15 00:00N 36°60' E 001°28'1613.0
2017-Sep-14 22:44N 37°03' E 001°48'313.0
2017-Sep-14 22:30N 37°03' E 001°51'1414.4
2017-Sep-14 21:32N 37°06' E 002°09'014.3
2017-Sep-14 21:30N 37°06' E 002°09'714.1
2017-Sep-14 21:00N 37°08' E 002°18'1014.1
2017-Sep-14 20:19N 37°10' E 002°30'414.1
2017-Sep-14 20:00N 37°12' E 002°35'714.0
2017-Sep-14 19:30N 37°14' E 002°43'814.0
2017-Sep-14 18:55N 37°15' E 002°53'614.1
2017-Sep-14 18:30N 37°17' E 003°00'714.1
2017-Sep-14 18:00N 37°18' E 003°09'714.1
2017-Sep-14 17:29N 37°20' E 003°18'714.2
2017-Sep-14 17:01N 37°23' E 003°26'714.1
2017-Sep-14 16:30N 37°24' E 003°35'713.9
2017-Sep-14 16:00N 37°25' E 003°43'714.0
2017-Sep-14 15:30N 37°27' E 003°52'714.0
2017-Sep-14 15:00N 37°29' E 004°00'714.2
2017-Sep-14 14:30N 37°31' E 004°09'714.1
2017-Sep-14 14:00N 37°32' E 004°17'714.1
2017-Sep-14 13:30N 37°33' E 004°26'714.0
2017-Sep-14 13:00N 37°34' E 004°35'714.1
2017-Sep-14 12:30N 37°36' E 004°43'713.7
2017-Sep-14 12:00N 37°38' E 004°52'714.0
2017-Sep-14 11:30N 37°39' E 005°00'714.2
2017-Sep-14 11:00N 37°40' E 005°09'714.2
2017-Sep-14 10:30N 37°40' E 005°18'814.2
2017-Sep-14 09:59N 37°41' E 005°28'1114.3
2017-Sep-14 09:13N 37°40' E 005°41'314.4
2017-Sep-14 09:00N 37°40' E 005°45'28913.5
2017-Sep-13 11:36N 37°11' E 011°47'414.2
2017-Sep-13 11:21N 37°10' E 011°51'513.7
2017-Sep-13 11:00N 37°07' E 011°57'713.7
2017-Sep-13 10:30N 37°04' E 012°04'713.7
2017-Sep-13 10:00N 37°02' E 012°12'713.6
2017-Sep-13 09:28N 36°59' E 012°21'813.1
2017-Sep-13 08:52N 36°57' E 012°30'1213.3
2017-Sep-13 08:00N 36°53' E 012°44'713.3
2017-Sep-13 07:30N 36°51' E 012°52'713.3
2017-Sep-13 07:00N 36°50' E 012°60'713.3
2017-Sep-13 06:30N 36°48' E 013°08'713.3
2017-Sep-13 06:00N 36°46' E 013°15'713.5
2017-Sep-13 05:30N 36°44' E 013°23'713.2
2017-Sep-13 05:00N 36°41' E 013°31'713.2
2017-Sep-13 04:30N 36°39' E 013°39'612.9
2017-Sep-13 04:00N 36°37' E 013°46'612.8
2017-Sep-13 03:30N 36°35' E 013°54'612.8
2017-Sep-13 03:00N 36°33' E 014°02'713.2
2017-Sep-13 02:30N 36°31' E 014°10'713.1
2017-Sep-13 02:00N 36°29' E 014°17'713.1
2017-Sep-13 01:30N 36°27' E 014°25'813.1
2017-Sep-13 00:55N 36°25' E 014°34'613.0
2017-Sep-13 00:27N 36°23' E 014°42'613.3
2017-Sep-13 00:00N 36°21' E 014°48'713.3
2017-Sep-12 23:30N 36°18' E 014°56'713.6
2017-Sep-12 23:00N 36°16' E 015°04'713.5
2017-Sep-12 22:30N 36°15' E 015°12'56611.9
2017-Sep-10 22:52N 34°13' E 026°29'513.4
2017-Sep-10 22:30N 34°13' E 026°35'  
Track history (hours):
 
Tides and Currents Weather Stations Pressure Air Temp Water Temp Dewpoint Dewpoint Depression Visibility Wind Speed Wind Dir Waves Ship Positions

Alondra

Last reported at 2017-Sep-20 13:36 UTC. Time now 2017-Sep-23 05:58 UTC.
Position N 39°36' W 010°46'.

Length 97 m; draft 4 m.

Type: Cargo ship. MMSI: 236404000.

Date/timePositionNaut miles runAvg speedWind from/ knotsBaromVisibWave heightAir tempDewpointWater temp
2017-Sep-20 13:36N 39°36' W 010°46'1 8.2
2017-Sep-20 13:27N 39°35' W 010°46'4 8.1
2017-Sep-20 13:01N 39°31' W 010°45'4 8.1
2017-Sep-20 12:30N 39°27' W 010°44'4 8.6
2017-Sep-20 12:00N 39°23' W 010°43'611.6
2017-Sep-20 11:31N 39°17' W 010°41'4 8.0
2017-Sep-20 10:59N 39°13' W 010°40'812.9
2017-Sep-20 10:24N 39°21' W 010°41'3 7.6
2017-Sep-20 10:01N 39°18' W 010°41'4 8.5
2017-Sep-20 09:31N 39°14' W 010°40'4 8.5
2017-Sep-20 09:00N 39°09' W 010°40'4 8.3
2017-Sep-20 08:31N 39°05' W 010°39'4 8.5
2017-Sep-20 08:00N 39°01' W 010°38'4 8.6
2017-Sep-20 07:30N 38°57' W 010°38'4 8.5
2017-Sep-20 07:00N 38°53' W 010°37'4 8.5
2017-Sep-20 06:30N 38°48' W 010°36'4 8.4
2017-Sep-20 06:00N 38°44' W 010°34'4 8.3
2017-Sep-20 05:30N 38°40' W 010°33'4 8.4
2017-Sep-20 05:00N 38°36' W 010°32'4 8.5
2017-Sep-20 04:31N 38°32' W 010°32'4 8.6
2017-Sep-20 04:00N 38°28' W 010°31'4 8.3
2017-Sep-20 03:30N 38°24' W 010°30'4 8.1
2017-Sep-20 03:00N 38°20' W 010°29'4 7.6
2017-Sep-20 02:31N 38°16' W 010°28'4 7.3
2017-Sep-20 02:01N 38°12' W 010°27'4 7.8
2017-Sep-20 01:31N 38°09' W 010°26'4 8.0
2017-Sep-20 01:00N 38°05' W 010°25'4 7.8
2017-Sep-20 00:30N 38°01' W 010°25'4 7.7
2017-Sep-20 00:00N 37°57' W 010°25'4 7.5
2017-Sep-19 23:28N 37°53' W 010°24'3 7.3
2017-Sep-19 23:00N 37°50' W 010°23'4 7.3
2017-Sep-19 22:28N 37°46' W 010°23'3 7.3
2017-Sep-19 22:01N 37°42' W 010°22'4 7.4
2017-Sep-19 21:31N 37°39' W 010°21'4 8.0
2017-Sep-19 21:00N 37°35' W 010°20'4 8.2
2017-Sep-19 20:29N 37°31' W 010°19'4 8.3
2017-Sep-19 20:00N 37°27' W 010°18'5 8.6
2017-Sep-19 19:28N 37°22' W 010°17'5 8.3
2017-Sep-19 18:50N 37°17' W 010°16'3 8.1
2017-Sep-19 18:31N 37°14' W 010°16'4 8.0
2017-Sep-19 17:59N 37°10' W 010°15'100 6.3
2017-Sep-19 02:07N 35°59' W 008°47'1 7.6
2017-Sep-19 02:00N 35°59' W 008°46'4 7.8
2017-Sep-19 01:28N 35°59' W 008°41'149 9.6
2017-Sep-18 09:58N 35°58' W 005°36'510.9
2017-Sep-18 09:31N 35°59' W 005°30'5 9.3
2017-Sep-18 09:01N 35°60' W 005°24'4 7.9
2017-Sep-18 08:31N 35°57' W 005°21'2 4.1
2017-Sep-18 08:01N 35°55' W 005°20'0 0.1
2017-Sep-18 07:28N 35°55' W 005°20'0 0.1
2017-Sep-18 06:58N 35°55' W 005°20'0 0.0
2017-Sep-18 06:28N 35°55' W 005°20'0 0.2
2017-Sep-18 05:58N 35°55' W 005°20'0 0.0
2017-Sep-18 05:25N 35°55' W 005°20'0 0.1
2017-Sep-18 04:58N 35°55' W 005°20'0 0.1
2017-Sep-18 04:28N 35°55' W 005°20'0 0.0
2017-Sep-18 03:58N 35°55' W 005°20'0 0.0
2017-Sep-18 03:28N 35°55' W 005°20'0 0.0
2017-Sep-18 02:58N 35°55' W 005°20'0 0.1
2017-Sep-18 02:28N 35°55' W 005°20'0 0.0
2017-Sep-18 01:58N 35°55' W 005°20'0 0.1
2017-Sep-18 01:28N 35°55' W 005°20'0 0.0
2017-Sep-18 00:58N 35°55' W 005°20'0 0.0
2017-Sep-18 00:28N 35°55' W 005°20'0 0.0
2017-Sep-17 23:58N 35°55' W 005°20'0 0.0
2017-Sep-17 23:28N 35°55' W 005°20'0 0.0
2017-Sep-17 22:58N 35°55' W 005°20'0 0.0
2017-Sep-17 22:28N 35°55' W 005°20'0 0.0
2017-Sep-17 21:58N 35°55' W 005°20'0 0.0
2017-Sep-17 21:28N 35°55' W 005°20'0 0.0
2017-Sep-17 20:58N 35°55' W 005°20'0 0.0
2017-Sep-17 20:28N 35°55' W 005°20'0 0.0
2017-Sep-17 19:58N 35°55' W 005°20'0 0.0
2017-Sep-17 19:28N 35°55' W 005°20'0 0.0
2017-Sep-17 18:58N 35°55' W 005°20'0 0.0
2017-Sep-17 18:28N 35°55' W 005°20'0 0.0
2017-Sep-17 17:58N 35°55' W 005°20'0 0.0
2017-Sep-17 17:28N 35°55' W 005°20'0 0.0
2017-Sep-17 16:58N 35°55' W 005°20'0 0.0
2017-Sep-17 16:28N 35°55' W 005°20'0 0.0
2017-Sep-17 15:58N 35°55' W 005°20'0 0.1
2017-Sep-17 15:28N 35°55' W 005°20'0 0.1
2017-Sep-17 14:58N 35°55' W 005°20'0 0.1
2017-Sep-17 14:28N 35°55' W 005°20'0 0.0
2017-Sep-17 13:58N 35°55' W 005°20'0 0.1
2017-Sep-17 13:28N 35°55' W 005°20'0 0.0
2017-Sep-17 12:58N 35°55' W 005°20'0 0.0
2017-Sep-17 12:28N 35°55' W 005°20'0 0.0
2017-Sep-17 11:58N 35°55' W 005°20'0 0.0
2017-Sep-17 11:28N 35°55' W 005°20'0 0.0
2017-Sep-17 10:58N 35°55' W 005°20'0 0.1
2017-Sep-17 10:28N 35°55' W 005°20'0 0.0
2017-Sep-17 09:58N 35°55' W 005°20'0 0.0
2017-Sep-17 09:28N 35°55' W 005°20'0 0.0
2017-Sep-17 08:58N 35°55' W 005°20'0 0.0
2017-Sep-17 08:28N 35°55' W 005°20'0 0.0
2017-Sep-17 07:58N 35°55' W 005°20'0 0.0
2017-Sep-17 07:28N 35°55' W 005°20'0 0.0
2017-Sep-17 06:58N 35°55' W 005°20'0 0.0
2017-Sep-17 06:28N 35°55' W 005°20'0 0.1
2017-Sep-17 05:58N 35°55' W 005°20'0 0.0
2017-Sep-17 05:28N 35°55' W 005°20'0 0.1
2017-Sep-17 04:58N 35°55' W 005°20'0 0.1
2017-Sep-17 04:28N 35°55' W 005°20'0 0.1
2017-Sep-17 03:58N 35°55' W 005°20'0 0.0
2017-Sep-17 03:28N 35°55' W 005°20'0 0.0
2017-Sep-17 02:58N 35°55' W 005°20'0 0.0
2017-Sep-17 02:28N 35°55' W 005°20'0 0.1
2017-Sep-17 01:58N 35°55' W 005°20'0 0.1
2017-Sep-17 01:28N 35°55' W 005°20'0 0.0
2017-Sep-17 00:58N 35°55' W 005°20'0 0.0
2017-Sep-17 00:28N 35°55' W 005°20'0 0.0
2017-Sep-16 23:58N 35°55' W 005°20'0 0.1
2017-Sep-16 23:28N 35°55' W 005°20'0 0.0
2017-Sep-16 22:58N 35°55' W 005°20'0 0.0
2017-Sep-16 22:28N 35°55' W 005°20'0 0.0
2017-Sep-16 21:58N 35°55' W 005°20'0 0.0
2017-Sep-16 21:28N 35°55' W 005°20'0 0.0
2017-Sep-16 20:58N 35°55' W 005°20'0 0.1
2017-Sep-16 20:28N 35°55' W 005°20'0 0.1
2017-Sep-16 19:58N 35°55' W 005°20'0 0.1
2017-Sep-16 19:28N 35°55' W 005°20'0 0.1
2017-Sep-16 18:58N 35°55' W 005°20'0 0.0
2017-Sep-16 18:28N 35°55' W 005°20'0 0.1
2017-Sep-16 17:58N 35°55' W 005°20'0 0.0
2017-Sep-16 17:28N 35°55' W 005°20'0 0.1
2017-Sep-16 16:58N 35°55' W 005°20'0 0.0
2017-Sep-16 16:28N 35°55' W 005°20'0 0.1
2017-Sep-16 15:58N 35°55' W 005°20'0 0.0
2017-Sep-16 15:28N 35°55' W 005°20'0 0.0
2017-Sep-16 14:58N 35°55' W 005°20'0 0.0
2017-Sep-16 14:28N 35°55' W 005°20'0 0.0
2017-Sep-16 13:58N 35°55' W 005°20'0 0.5
2017-Sep-16 13:30N 35°55' W 005°20'2 3.3
2017-Sep-16 13:00N 35°54' W 005°19'0 0.4
2017-Sep-16 12:28N 35°54' W 005°18'0 0.0
2017-Sep-16 11:58N 35°54' W 005°18'0 0.0
2017-Sep-16 11:30N 35°54' W 005°18'0 0.0
2017-Sep-16 10:58N 35°54' W 005°18'0 0.0
2017-Sep-16 10:28N 35°54' W 005°18'0 0.0
2017-Sep-16 09:58N 35°54' W 005°18'0 0.0
2017-Sep-16 09:28N 35°54' W 005°18'0 0.0
2017-Sep-16 08:58N 35°54' W 005°18'0 0.0
2017-Sep-16 08:28N 35°54' W 005°18'0 0.0
2017-Sep-16 08:00N 35°54' W 005°18'1 1.7
2017-Sep-16 07:30N 35°55' W 005°18'1 1.3
2017-Sep-16 07:00N 35°55' W 005°18'0 0.8
2017-Sep-16 06:30N 35°56' W 005°18'0 0.8
2017-Sep-16 06:01N 35°56' W 005°18'1 1.8
2017-Sep-16 05:30N 35°57' W 005°17'28611.1
2017-Sep-15 03:44N 36°47' E 000°32'312.1
2017-Sep-15 03:28N 36°48' E 000°36'612.2
2017-Sep-15 03:00N 36°49' E 000°42'612.3
2017-Sep-15 02:30N 36°51' E 000°50'612.4
2017-Sep-15 02:00N 36°52' E 000°57'612.6
2017-Sep-15 01:30N 36°53' E 001°05'1512.7
2017-Sep-15 00:19N 36°59' E 001°23'413.0
2017-Sep-15 00:00N 36°60' E 001°28'1613.0
2017-Sep-14 22:44N 37°03' E 001°48'313.0
2017-Sep-14 22:30N 37°03' E 001°51'1414.4
2017-Sep-14 21:32N 37°06' E 002°09'014.3
2017-Sep-14 21:30N 37°06' E 002°09'714.1
2017-Sep-14 21:00N 37°08' E 002°18'1014.1
2017-Sep-14 20:19N 37°10' E 002°30'414.1
2017-Sep-14 20:00N 37°12' E 002°35'714.0
2017-Sep-14 19:30N 37°14' E 002°43'814.0
2017-Sep-14 18:55N 37°15' E 002°53'614.1
2017-Sep-14 18:30N 37°17' E 003°00'714.1
2017-Sep-14 18:00N 37°18' E 003°09'714.1
2017-Sep-14 17:29N 37°20' E 003°18'714.2
2017-Sep-14 17:01N 37°23' E 003°26'714.1
2017-Sep-14 16:30N 37°24' E 003°35'713.9
2017-Sep-14 16:00N 37°25' E 003°43'714.0
2017-Sep-14 15:30N 37°27' E 003°52'714.0
2017-Sep-14 15:00N 37°29' E 004°00'714.2
2017-Sep-14 14:30N 37°31' E 004°09'714.1
2017-Sep-14 14:00N 37°32' E 004°17'714.1
2017-Sep-14 13:30N 37°33' E 004°26'714.0
2017-Sep-14 13:00N 37°34' E 004°35'714.1
2017-Sep-14 12:30N 37°36' E 004°43'713.7
2017-Sep-14 12:00N 37°38' E 004°52'714.0
2017-Sep-14 11:30N 37°39' E 005°00'714.2
2017-Sep-14 11:00N 37°40' E 005°09'714.2
2017-Sep-14 10:30N 37°40' E 005°18'814.2
2017-Sep-14 09:59N 37°41' E 005°28'1114.3
2017-Sep-14 09:13N 37°40' E 005°41'314.4
2017-Sep-14 09:00N 37°40' E 005°45'28913.5
2017-Sep-13 11:36N 37°11' E 011°47'414.2
2017-Sep-13 11:21N 37°10' E 011°51'513.7
2017-Sep-13 11:00N 37°07' E 011°57'713.7
2017-Sep-13 10:30N 37°04' E 012°04'713.7
2017-Sep-13 10:00N 37°02' E 012°12'713.6
2017-Sep-13 09:28N 36°59' E 012°21'813.1
2017-Sep-13 08:52N 36°57' E 012°30'1213.3
2017-Sep-13 08:00N 36°53' E 012°44'713.3
2017-Sep-13 07:30N 36°51' E 012°52'713.3
2017-Sep-13 07:00N 36°50' E 012°60'713.3
2017-Sep-13 06:30N 36°48' E 013°08'713.3
2017-Sep-13 06:00N 36°46' E 013°15'713.5
2017-Sep-13 05:30N 36°44' E 013°23'713.2
2017-Sep-13 05:00N 36°41' E 013°31'713.2
2017-Sep-13 04:30N 36°39' E 013°39'612.9
2017-Sep-13 04:00N 36°37' E 013°46'612.8
2017-Sep-13 03:30N 36°35' E 013°54'612.8
2017-Sep-13 03:00N 36°33' E 014°02'713.2
2017-Sep-13 02:30N 36°31' E 014°10'713.1
2017-Sep-13 02:00N 36°29' E 014°17'713.1
2017-Sep-13 01:30N 36°27' E 014°25'813.1
2017-Sep-13 00:55N 36°25' E 014°34'613.0
2017-Sep-13 00:27N 36°23' E 014°42'613.3
2017-Sep-13 00:00N 36°21' E 014°48'713.3
2017-Sep-12 23:30N 36°18' E 014°56'713.6
2017-Sep-12 23:00N 36°16' E 015°04'713.5
2017-Sep-12 22:30N 36°15' E 015°12'56611.9
2017-Sep-10 22:52N 34°13' E 026°29'513.4
2017-Sep-10 22:30N 34°13' E 026°35'  

Dump ship's entire track history